sensor_id;sensor_type;location;lat;lon;timestamp;temperature;humidity
24444;DHT22;13346;50.984;5.822;2023-08-01T00:00:25;16.90;99.90
24444;DHT22;13346;50.984;5.822;2023-08-01T00:02:52;16.80;99.90
24444;DHT22;13346;50.984;5.822;2023-08-01T00:05:20;16.80;99.90
24444;DHT22;13346;50.984;5.822;2023-08-01T00:07:47;16.80;99.90
24444;DHT22;13346;50.984;5.822;2023-08-01T00:10:16;16.70;99.90
24444;DHT22;13346;50.984;5.822;2023-08-01T00:12:44;16.80;99.90
24444;DHT22;13346;50.984;5.822;2023-08-01T00:15:11;16.70;99.90
24444;DHT22;13346;50.984;5.822;2023-08-01T00:17:38;16.60;99.90
24444;DHT22;13346;50.984;5.822;2023-08-01T00:20:07;16.60;99.90
24444;DHT22;13346;50.984;5.822;2023-08-01T00:22:34;16.60;99.90
24444;DHT22;13346;50.984;5.822;2023-08-01T00:25:02;16.60;99.90
24444;DHT22;13346;50.984;5.822;2023-08-01T00:27:30;16.50;99.90
24444;DHT22;13346;50.984;5.822;2023-08-01T00:29:59;16.60;99.90
24444;DHT22;13346;50.984;5.822;2023-08-01T00:32:26;16.50;99.90
24444;DHT22;13346;50.984;5.822;2023-08-01T00:34:53;16.50;99.90
24444;DHT22;13346;50.984;5.822;2023-08-01T00:37:21;16.50;99.90
24444;DHT22;13346;50.984;5.822;2023-08-01T00:49:55;16.50;99.90
24444;DHT22;13346;50.984;5.822;2023-08-01T00:52:23;16.40;99.90
24444;DHT22;13346;50.984;5.822;2023-08-01T00:54:50;16.50;99.90
24444;DHT22;13346;50.984;5.822;2023-08-01T00:57:18;16.40;99.90
24444;DHT22;13346;50.984;5.822;2023-08-01T00:59:45;16.40;99.90
24444;DHT22;13346;50.984;5.822;2023-08-01T01:02:13;16.30;99.90
24444;DHT22;13346;50.984;5.822;2023-08-01T01:04:40;16.30;99.90
24444;DHT22;13346;50.984;5.822;2023-08-01T01:07:09;16.20;99.90
24444;DHT22;13346;50.984;5.822;2023-08-01T01:09:36;16.30;99.90
24444;DHT22;13346;50.984;5.822;2023-08-01T01:12:03;16.20;99.90
24444;DHT22;13346;50.984;5.822;2023-08-01T01:14:31;16.30;99.90
24444;DHT22;13346;50.984;5.822;2023-08-01T01:16:58;16.30;99.90
24444;DHT22;13346;50.984;5.822;2023-08-01T01:19:26;16.20;99.90
24444;DHT22;13346;50.984;5.822;2023-08-01T01:21:56;16.20;99.90
24444;DHT22;13346;50.984;5.822;2023-08-01T01:24:25;16.20;99.90
24444;DHT22;13346;50.984;5.822;2023-08-01T01:26:54;16.20;99.90
24444;DHT22;13346;50.984;5.822;2023-08-01T01:29:23;16.20;99.90
24444;DHT22;13346;50.984;5.822;2023-08-01T01:31:51;16.10;99.90
24444;DHT22;13346;50.984;5.822;2023-08-01T01:34:19;16.10;99.90
24444;DHT22;13346;50.984;5.822;2023-08-01T01:36:47;16.00;99.90
24444;DHT22;13346;50.984;5.822;2023-08-01T01:39:15;16.00;99.90
24444;DHT22;13346;50.984;5.822;2023-08-01T01:41:43;16.00;99.90
24444;DHT22;13346;50.984;5.822;2023-08-01T01:44:11;16.00;99.90
24444;DHT22;13346;50.984;5.822;2023-08-01T01:46:38;16.10;99.90
24444;DHT22;13346;50.984;5.822;2023-08-01T01:49:06;16.00;99.90
24444;DHT22;13346;50.984;5.822;2023-08-01T01:51:33;16.00;99.90
24444;DHT22;13346;50.984;5.822;2023-08-01T01:54:01;15.90;99.90
24444;DHT22;13346;50.984;5.822;2023-08-01T01:56:29;15.90;99.90
24444;DHT22;13346;50.984;5.822;2023-08-01T01:58:57;15.80;99.90
24444;DHT22;13346;50.984;5.822;2023-08-01T02:01:24;15.80;99.90
24444;DHT22;13346;50.984;5.822;2023-08-01T02:03:52;15.80;99.90
24444;DHT22;13346;50.984;5.822;2023-08-01T02:06:19;15.70;99.90
24444;DHT22;13346;50.984;5.822;2023-08-01T02:08:46;15.70;99.90
24444;DHT22;13346;50.984;5.822;2023-08-01T02:11:13;15.70;99.90
24444;DHT22;13346;50.984;5.822;2023-08-01T02:13:42;15.60;99.90
24444;DHT22;13346;50.984;5.822;2023-08-01T02:16:09;15.60;99.90
24444;DHT22;13346;50.984;5.822;2023-08-01T02:18:39;15.60;99.90
24444;DHT22;13346;50.984;5.822;2023-08-01T02:21:07;15.60;99.90
24444;DHT22;13346;50.984;5.822;2023-08-01T02:23:34;15.60;99.90
24444;DHT22;13346;50.984;5.822;2023-08-01T02:26:03;15.60;99.90
24444;DHT22;13346;50.984;5.822;2023-08-01T02:28:31;15.60;99.90
24444;DHT22;13346;50.984;5.822;2023-08-01T02:30:59;15.60;99.90
24444;DHT22;13346;50.984;5.822;2023-08-01T02:33:27;15.60;99.90
24444;DHT22;13346;50.984;5.822;2023-08-01T02:35:54;15.50;99.90
24444;DHT22;13346;50.984;5.822;2023-08-01T02:38:21;15.60;99.90
24444;DHT22;13346;50.984;5.822;2023-08-01T02:40:49;15.50;99.90
24444;DHT22;13346;50.984;5.822;2023-08-01T02:43:16;15.50;99.90
24444;DHT22;13346;50.984;5.822;2023-08-01T02:45:43;15.50;99.90
24444;DHT22;13346;50.984;5.822;2023-08-01T02:48:12;15.40;99.90
24444;DHT22;13346;50.984;5.822;2023-08-01T02:50:40;15.30;99.90
24444;DHT22;13346;50.984;5.822;2023-08-01T02:53:07;15.30;99.90
24444;DHT22;13346;50.984;5.822;2023-08-01T02:55:35;15.30;99.90
24444;DHT22;13346;50.984;5.822;2023-08-01T02:58:02;15.30;99.90
24444;DHT22;13346;50.984;5.822;2023-08-01T03:00:29;15.30;99.90
24444;DHT22;13346;50.984;5.822;2023-08-01T03:02:57;15.20;99.90
24444;DHT22;13346;50.984;5.822;2023-08-01T03:05:26;15.20;99.90
24444;DHT22;13346;50.984;5.822;2023-08-01T03:07:53;15.10;99.90
24444;DHT22;13346;50.984;5.822;2023-08-01T03:10:20;15.20;99.90
24444;DHT22;13346;50.984;5.822;2023-08-01T03:12:48;15.10;99.90
24444;DHT22;13346;50.984;5.822;2023-08-01T03:15:15;15.10;99.90
24444;DHT22;13346;50.984;5.822;2023-08-01T03:17:42;15.10;99.90
24444;DHT22;13346;50.984;5.822;2023-08-01T03:20:10;15.10;99.90
24444;DHT22;13346;50.984;5.822;2023-08-01T03:22:39;15.20;99.90
24444;DHT22;13346;50.984;5.822;2023-08-01T03:25:07;15.10;99.90
24444;DHT22;13346;50.984;5.822;2023-08-01T03:27:35;15.10;99.90
24444;DHT22;13346;50.984;5.822;2023-08-01T03:30:03;15.10;99.90
24444;DHT22;13346;50.984;5.822;2023-08-01T03:32:34;15.20;99.90
24444;DHT22;13346;50.984;5.822;2023-08-01T03:35:03;15.10;99.90
24444;DHT22;13346;50.984;5.822;2023-08-01T03:37:31;15.10;99.90
24444;DHT22;13346;50.984;5.822;2023-08-01T03:39:59;15.10;99.90
24444;DHT22;13346;50.984;5.822;2023-08-01T03:42:27;15.20;99.90
24444;DHT22;13346;50.984;5.822;2023-08-01T03:44:55;15.20;99.90
24444;DHT22;13346;50.984;5.822;2023-08-01T03:47:22;15.20;99.90
24444;DHT22;13346;50.984;5.822;2023-08-01T03:49:49;15.20;99.90
24444;DHT22;13346;50.984;5.822;2023-08-01T03:52:17;15.20;99.90
24444;DHT22;13346;50.984;5.822;2023-08-01T03:54:45;15.20;99.90
24444;DHT22;13346;50.984;5.822;2023-08-01T03:57:14;15.10;99.90
24444;DHT22;13346;50.984;5.822;2023-08-01T03:59:41;15.00;99.90
24444;DHT22;13346;50.984;5.822;2023-08-01T04:02:09;15.10;99.90
24444;DHT22;13346;50.984;5.822;2023-08-01T04:04:36;15.10;99.90
24444;DHT22;13346;50.984;5.822;2023-08-01T04:07:04;15.10;99.90
24444;DHT22;13346;50.984;5.822;2023-08-01T04:09:31;15.10;99.90
24444;DHT22;13346;50.984;5.822;2023-08-01T04:11:59;15.10;99.90
24444;DHT22;13346;50.984;5.822;2023-08-01T04:14:27;15.20;99.90
24444;DHT22;13346;50.984;5.822;2023-08-01T04:16:55;15.10;99.90
24444;DHT22;13346;50.984;5.822;2023-08-01T04:19:22;15.10;99.90
24444;DHT22;13346;50.984;5.822;2023-08-01T04:21:50;15.00;99.90
24444;DHT22;13346;50.984;5.822;2023-08-01T04:24:18;14.90;99.90
24444;DHT22;13346;50.984;5.822;2023-08-01T04:26:45;14.80;99.90
24444;DHT22;13346;50.984;5.822;2023-08-01T04:29:12;14.80;99.90
24444;DHT22;13346;50.984;5.822;2023-08-01T04:31:43;14.80;99.90
24444;DHT22;13346;50.984;5.822;2023-08-01T04:34:10;14.80;99.90
24444;DHT22;13346;50.984;5.822;2023-08-01T04:36:38;14.80;99.90
24444;DHT22;13346;50.984;5.822;2023-08-01T04:39:05;14.80;99.90
24444;DHT22;13346;50.984;5.822;2023-08-01T04:41:33;14.90;99.90
24444;DHT22;13346;50.984;5.822;2023-08-01T04:44:00;15.00;99.90
24444;DHT22;13346;50.984;5.822;2023-08-01T04:46:27;14.90;99.90
24444;DHT22;13346;50.984;5.822;2023-08-01T04:48:56;15.00;99.90
24444;DHT22;13346;50.984;5.822;2023-08-01T04:51:23;15.00;99.90
24444;DHT22;13346;50.984;5.822;2023-08-01T04:53:51;15.00;99.90
24444;DHT22;13346;50.984;5.822;2023-08-01T04:56:18;15.10;99.90
24444;DHT22;13346;50.984;5.822;2023-08-01T04:58:46;15.20;99.90
24444;DHT22;13346;50.984;5.822;2023-08-01T05:01:13;15.20;99.90
24444;DHT22;13346;50.984;5.822;2023-08-01T05:03:40;15.20;99.90
24444;DHT22;13346;50.984;5.822;2023-08-01T05:06:09;15.20;99.90
24444;DHT22;13346;50.984;5.822;2023-08-01T05:08:36;15.30;99.90
24444;DHT22;13346;50.984;5.822;2023-08-01T05:11:04;15.20;99.90
24444;DHT22;13346;50.984;5.822;2023-08-01T05:13:31;15.20;99.90
24444;DHT22;13346;50.984;5.822;2023-08-01T05:15:59;15.30;99.90
24444;DHT22;13346;50.984;5.822;2023-08-01T05:18:26;15.30;99.90
24444;DHT22;13346;50.984;5.822;2023-08-01T05:20:53;15.40;99.90
24444;DHT22;13346;50.984;5.822;2023-08-01T05:23:22;15.50;99.90
24444;DHT22;13346;50.984;5.822;2023-08-01T05:25:50;15.60;99.90
24444;DHT22;13346;50.984;5.822;2023-08-01T05:28:17;15.50;99.90
24444;DHT22;13346;50.984;5.822;2023-08-01T05:30:45;15.50;99.90
24444;DHT22;13346;50.984;5.822;2023-08-01T05:33:12;15.50;99.90
24444;DHT22;13346;50.984;5.822;2023-08-01T05:35:39;16.60;99.90
24444;DHT22;13346;50.984;5.822;2023-08-01T05:38:07;15.80;99.90
24444;DHT22;13346;50.984;5.822;2023-08-01T05:40:35;15.70;99.90
24444;DHT22;13346;50.984;5.822;2023-08-01T05:43:03;15.60;99.90
24444;DHT22;13346;50.984;5.822;2023-08-01T05:45:31;15.50;99.90
24444;DHT22;13346;50.984;5.822;2023-08-01T05:47:58;15.30;99.90
24444;DHT22;13346;50.984;5.822;2023-08-01T05:50:26;15.40;99.90
24444;DHT22;13346;50.984;5.822;2023-08-01T05:52:53;15.50;99.90
24444;DHT22;13346;50.984;5.822;2023-08-01T05:55:20;15.50;99.90
24444;DHT22;13346;50.984;5.822;2023-08-01T05:57:49;15.50;99.90
24444;DHT22;13346;50.984;5.822;2023-08-01T06:00:18;15.50;99.90
24444;DHT22;13346;50.984;5.822;2023-08-01T06:02:46;15.60;99.90
24444;DHT22;13346;50.984;5.822;2023-08-01T06:05:14;15.60;99.90
24444;DHT22;13346;50.984;5.822;2023-08-01T06:07:42;15.80;99.90
24444;DHT22;13346;50.984;5.822;2023-08-01T06:10:09;17.20;99.90
24444;DHT22;13346;50.984;5.822;2023-08-01T06:12:37;17.50;99.90
24444;DHT22;13346;50.984;5.822;2023-08-01T06:15:06;17.90;99.90
24444;DHT22;13346;50.984;5.822;2023-08-01T06:17:34;17.50;99.90
24444;DHT22;13346;50.984;5.822;2023-08-01T06:20:01;16.60;99.90
24444;DHT22;13346;50.984;5.822;2023-08-01T06:22:30;17.10;99.90
24444;DHT22;13346;50.984;5.822;2023-08-01T06:24:57;17.50;99.90
24444;DHT22;13346;50.984;5.822;2023-08-01T06:27:25;16.70;99.90
24444;DHT22;13346;50.984;5.822;2023-08-01T06:29:52;17.10;99.90
24444;DHT22;13346;50.984;5.822;2023-08-01T06:32:21;18.00;99.90
24444;DHT22;13346;50.984;5.822;2023-08-01T06:34:48;17.00;99.90
24444;DHT22;13346;50.984;5.822;2023-08-01T06:37:15;17.00;99.90
24444;DHT22;13346;50.984;5.822;2023-08-01T06:39:43;16.80;99.90
24444;DHT22;13346;50.984;5.822;2023-08-01T06:42:10;16.10;99.90
24444;DHT22;13346;50.984;5.822;2023-08-01T06:44:38;16.10;99.90
24444;DHT22;13346;50.984;5.822;2023-08-01T06:47:05;16.10;99.90
24444;DHT22;13346;50.984;5.822;2023-08-01T06:49:34;16.10;99.90
24444;DHT22;13346;50.984;5.822;2023-08-01T06:52:01;16.10;99.90
24444;DHT22;13346;50.984;5.822;2023-08-01T06:54:28;16.20;99.90
24444;DHT22;13346;50.984;5.822;2023-08-01T06:56:56;16.10;99.90
24444;DHT22;13346;50.984;5.822;2023-08-01T06:59:24;16.30;99.90
24444;DHT22;13346;50.984;5.822;2023-08-01T07:01:52;16.20;99.90
24444;DHT22;13346;50.984;5.822;2023-08-01T07:04:19;16.10;99.90
24444;DHT22;13346;50.984;5.822;2023-08-01T07:06:48;16.40;99.90
24444;DHT22;13346;50.984;5.822;2023-08-01T07:09:15;16.50;99.90
24444;DHT22;13346;50.984;5.822;2023-08-01T07:11:42;16.60;99.90
24444;DHT22;13346;50.984;5.822;2023-08-01T07:14:10;16.60;99.90
24444;DHT22;13346;50.984;5.822;2023-08-01T07:16:37;16.50;99.90
24444;DHT22;13346;50.984;5.822;2023-08-01T07:19:04;18.50;99.90
24444;DHT22;13346;50.984;5.822;2023-08-01T07:21:32;19.10;99.90
24444;DHT22;13346;50.984;5.822;2023-08-01T07:24:01;17.50;99.90
24444;DHT22;13346;50.984;5.822;2023-08-01T07:26:28;17.60;99.90
24444;DHT22;13346;50.984;5.822;2023-08-01T07:28:56;18.70;99.90
24444;DHT22;13346;50.984;5.822;2023-08-01T07:31:23;17.30;99.90
24444;DHT22;13346;50.984;5.822;2023-08-01T07:33:51;17.20;99.90
24444;DHT22;13346;50.984;5.822;2023-08-01T07:36:18;17.20;99.90
24444;DHT22;13346;50.984;5.822;2023-08-01T07:38:47;17.30;99.90
24444;DHT22;13346;50.984;5.822;2023-08-01T07:41:16;17.10;99.90
24444;DHT22;13346;50.984;5.822;2023-08-01T07:43:43;17.00;99.90
24444;DHT22;13346;50.984;5.822;2023-08-01T07:46:10;17.00;99.90
24444;DHT22;13346;50.984;5.822;2023-08-01T07:48:38;17.00;99.90
24444;DHT22;13346;50.984;5.822;2023-08-01T07:51:06;17.10;99.90
24444;DHT22;13346;50.984;5.822;2023-08-01T07:53:33;17.60;99.90
24444;DHT22;13346;50.984;5.822;2023-08-01T07:56:00;17.80;99.90
24444;DHT22;13346;50.984;5.822;2023-08-01T07:58:29;19.50;99.90
24444;DHT22;13346;50.984;5.822;2023-08-01T08:00:57;18.40;99.90
24444;DHT22;13346;50.984;5.822;2023-08-01T08:03:29;19.60;99.90
24444;DHT22;13346;50.984;5.822;2023-08-01T08:05:57;19.50;99.90
24444;DHT22;13346;50.984;5.822;2023-08-01T08:08:24;19.20;99.90
24444;DHT22;13346;50.984;5.822;2023-08-01T08:10:52;20.20;99.90
24444;DHT22;13346;50.984;5.822;2023-08-01T08:13:20;20.10;99.90
24444;DHT22;13346;50.984;5.822;2023-08-01T08:15:48;18.20;99.90
24444;DHT22;13346;50.984;5.822;2023-08-01T08:18:16;18.70;99.90
24444;DHT22;13346;50.984;5.822;2023-08-01T08:20:45;18.00;99.90
24444;DHT22;13346;50.984;5.822;2023-08-01T08:23:12;18.70;99.90
24444;DHT22;13346;50.984;5.822;2023-08-01T08:25:41;18.40;99.90
24444;DHT22;13346;50.984;5.822;2023-08-01T08:28:11;18.30;99.90
24444;DHT22;13346;50.984;5.822;2023-08-01T08:30:38;18.30;99.90
24444;DHT22;13346;50.984;5.822;2023-08-01T08:33:07;18.60;99.90
24444;DHT22;13346;50.984;5.822;2023-08-01T08:35:36;18.80;99.90
24444;DHT22;13346;50.984;5.822;2023-08-01T08:38:03;18.70;99.90
24444;DHT22;13346;50.984;5.822;2023-08-01T08:40:32;18.50;99.90
24444;DHT22;13346;50.984;5.822;2023-08-01T08:43:01;18.20;99.90
24444;DHT22;13346;50.984;5.822;2023-08-01T08:45:34;18.80;99.90
24444;DHT22;13346;50.984;5.822;2023-08-01T08:48:09;19.10;99.90
24444;DHT22;13346;50.984;5.822;2023-08-01T08:50:41;18.90;99.90
24444;DHT22;13346;50.984;5.822;2023-08-01T08:53:10;19.50;99.90
24444;DHT22;13346;50.984;5.822;2023-08-01T08:55:39;19.70;99.90
24444;DHT22;13346;50.984;5.822;2023-08-01T08:58:07;19.00;99.90
24444;DHT22;13346;50.984;5.822;2023-08-01T09:00:36;19.00;99.90
24444;DHT22;13346;50.984;5.822;2023-08-01T09:03:04;19.70;99.90
24444;DHT22;13346;50.984;5.822;2023-08-01T09:05:36;20.10;99.90
24444;DHT22;13346;50.984;5.822;2023-08-01T09:08:20;20.10;99.90
24444;DHT22;13346;50.984;5.822;2023-08-01T09:10:48;19.30;99.90
24444;DHT22;13346;50.984;5.822;2023-08-01T09:13:15;19.70;99.90
24444;DHT22;13346;50.984;5.822;2023-08-01T09:15:42;19.70;99.90
24444;DHT22;13346;50.984;5.822;2023-08-01T09:18:10;20.30;99.90
24444;DHT22;13346;50.984;5.822;2023-08-01T09:20:44;19.40;99.90
24444;DHT22;13346;50.984;5.822;2023-08-01T09:23:14;20.00;99.90
24444;DHT22;13346;50.984;5.822;2023-08-01T09:25:43;20.30;99.90
24444;DHT22;13346;50.984;5.822;2023-08-01T09:28:18;20.60;99.90
24444;DHT22;13346;50.984;5.822;2023-08-01T09:30:50;20.40;99.90
24444;DHT22;13346;50.984;5.822;2023-08-01T09:33:17;21.10;99.90
24444;DHT22;13346;50.984;5.822;2023-08-01T09:35:45;20.50;99.90
24444;DHT22;13346;50.984;5.822;2023-08-01T09:38:15;20.10;99.90
24444;DHT22;13346;50.984;5.822;2023-08-01T09:40:43;20.00;99.90
24444;DHT22;13346;50.984;5.822;2023-08-01T09:43:11;20.10;99.90
24444;DHT22;13346;50.984;5.822;2023-08-01T09:45:50;20.00;99.90
24444;DHT22;13346;50.984;5.822;2023-08-01T09:48:23;20.10;99.90
24444;DHT22;13346;50.984;5.822;2023-08-01T09:50:51;20.80;99.90
24444;DHT22;13346;50.984;5.822;2023-08-01T09:53:20;20.90;99.90
24444;DHT22;13346;50.984;5.822;2023-08-01T09:55:48;20.00;99.90
24444;DHT22;13346;50.984;5.822;2023-08-01T09:58:17;20.10;99.90
24444;DHT22;13346;50.984;5.822;2023-08-01T10:00:49;19.70;99.90
24444;DHT22;13346;50.984;5.822;2023-08-01T10:03:17;20.90;99.90
24444;DHT22;13346;50.984;5.822;2023-08-01T10:05:45;21.20;99.90
24444;DHT22;13346;50.984;5.822;2023-08-01T10:08:13;21.00;99.90
24444;DHT22;13346;50.984;5.822;2023-08-01T10:10:43;20.80;99.90
24444;DHT22;13346;50.984;5.822;2023-08-01T10:13:13;19.90;99.90
24444;DHT22;13346;50.984;5.822;2023-08-01T10:15:41;19.70;99.90
24444;DHT22;13346;50.984;5.822;2023-08-01T10:18:09;20.70;99.90
24444;DHT22;13346;50.984;5.822;2023-08-01T22:54:36;15.70;99.90
24444;DHT22;13346;50.984;5.822;2023-08-01T22:57:04;15.90;99.90
24444;DHT22;13346;50.984;5.822;2023-08-01T22:59:31;16.00;99.90
24444;DHT22;13346;50.984;5.822;2023-08-01T23:01:59;16.10;99.90
24444;DHT22;13346;50.984;5.822;2023-08-01T23:04:26;16.10;99.90
24444;DHT22;13346;50.984;5.822;2023-08-01T23:06:54;16.10;99.90
24444;DHT22;13346;50.984;5.822;2023-08-01T23:09:21;16.00;99.90
24444;DHT22;13346;50.984;5.822;2023-08-01T23:11:50;16.00;99.90
24444;DHT22;13346;50.984;5.822;2023-08-01T23:14:17;16.00;99.90
24444;DHT22;13346;50.984;5.822;2023-08-01T23:16:45;16.00;99.90
24444;DHT22;13346;50.984;5.822;2023-08-01T23:19:12;16.20;99.90
24444;DHT22;13346;50.984;5.822;2023-08-01T23:21:40;16.10;99.90
24444;DHT22;13346;50.984;5.822;2023-08-01T23:24:07;16.20;99.90
24444;DHT22;13346;50.984;5.822;2023-08-01T23:26:35;16.00;99.90
24444;DHT22;13346;50.984;5.822;2023-08-01T23:29:03;15.90;99.90
24444;DHT22;13346;50.984;5.822;2023-08-01T23:31:31;15.90;99.90
24444;DHT22;13346;50.984;5.822;2023-08-01T23:33:59;15.80;99.90
24444;DHT22;13346;50.984;5.822;2023-08-01T23:36:27;15.80;99.90
24444;DHT22;13346;50.984;5.822;2023-08-01T23:38:54;15.70;99.90
24444;DHT22;13346;50.984;5.822;2023-08-01T23:41:23;15.90;99.90
24444;DHT22;13346;50.984;5.822;2023-08-01T23:43:50;15.90;99.90
24444;DHT22;13346;50.984;5.822;2023-08-01T23:46:21;15.90;99.90
24444;DHT22;13346;50.984;5.822;2023-08-01T23:48:49;16.00;99.90
24444;DHT22;13346;50.984;5.822;2023-08-01T23:51:16;16.00;99.90
24444;DHT22;13346;50.984;5.822;2023-08-01T23:53:44;16.10;99.90
24444;DHT22;13346;50.984;5.822;2023-08-01T23:56:11;16.10;99.90
24444;DHT22;13346;50.984;5.822;2023-08-01T23:58:39;16.00;99.90
